首页
METAR-TAF:

METAR-TAF

机场 :

阿伦敦, 宾夕法尼亚州, 美国

纬度: 40-39-03N, 经度: 075-26-57W, 海拔: 120米

当前天气观测

该预报发布于38分钟前的07:51 UTC
风速3节,风向北转西北
温度 8°C
湿度 81%
气压 1015 hPa
能見度: 16.1公里
多云层高于2500英尺
阴天层高于3300英尺
小雨

METAR: KABE 310751Z 34003KT 10SM -RA BKN025 OVC033 08/05 A2996 RMK AO2 RAB05E18B45 SLP145 P0000 T00830050

时间: 04:29 (08:29 UTC)

预报

该预报发布于40分钟前的07:49 UTC
预报有效从31日的 08点(UTC)到 01日的 06点(UTC)
风速4节,风向多变
能見度: 10公里
多云层高于2500英尺
从 31日的 0900点(UTC)
风速4节,风向多变
能見度: 10公里
阴天层高于1500英尺
从 31日的 1100点(UTC)
风速5节,风向东北
能見度: 10公里
阴天层高于1500英尺
从 31日的 1700点(UTC)
风速6节,风向
能見度: 10公里
阴天层高于2500英尺
从 31日的 1900点(UTC)
风速5节,风向
能見度: 10公里
阴天层高于4000英尺
从 01日的 0200点(UTC)
风速5节,风向
能見度: 10公里
多云层高于2500英尺

TAF: KABE 310749Z 3108/0106 VRB04KT P6SM BKN025 FM310900 VRB04KT P6SM OVC015 FM311100 05005KT P6SM OVC015 FM311700 08006KT P6SM OVC025 FM311900 09005KT P6SM OVC040 FM010200 09005KT P6SM BKN025

超过4000个机场的气象观测和天气预报(METAR&TAF报告)。

可查询的气象台以黄色和红色小点在地图上表示。

将鼠标移到小点上方,可查看气象台名称。

然后点击查看天气观测和预报。

如需切换地图:点击带黑十字的绿色按钮放大地图;点击带横线的绿色按钮缩小地图;或者点击绿色箭头查看邻近地区的地图。


METAR-TAF: